sensor_id;sensor_type;location;lat;lon;timestamp;pressure;altitude;pressure_sealevel;temperature;humidity
35224;BME280;21367;51.930;8.112;2022-07-29T00:02:47;101062.03;;;17.25;60.36
35224;BME280;21367;51.930;8.112;2022-07-29T00:07:51;101061.16;;;17.69;59.06
35224;BME280;21367;51.930;8.112;2022-07-29T00:12:57;101063.41;;;17.50;59.20
35224;BME280;21367;51.930;8.112;2022-07-29T00:18:01;101055.91;;;17.67;60.07
35224;BME280;21367;51.930;8.112;2022-07-29T00:23:05;101057.63;;;17.65;59.63
35224;BME280;21367;51.930;8.112;2022-07-29T00:28:11;101040.69;;;17.42;59.71
35224;BME280;21367;51.930;8.112;2022-07-29T00:33:15;101032.88;;;16.96;61.52
35224;BME280;21367;51.930;8.112;2022-07-29T00:38:19;101027.63;;;17.37;60.13
35224;BME280;21367;51.930;8.112;2022-07-29T00:43:26;101024.78;;;17.25;60.54
35224;BME280;21367;51.930;8.112;2022-07-29T00:48:29;101032.41;;;17.16;60.93
35224;BME280;21367;51.930;8.112;2022-07-29T00:53:34;101020.91;;;17.48;60.48
35224;BME280;21367;51.930;8.112;2022-07-29T00:58:42;101015.38;;;17.30;60.75
35224;BME280;21367;51.930;8.112;2022-07-29T01:03:46;101003.31;;;17.33;61.24
35224;BME280;21367;51.930;8.112;2022-07-29T01:08:50;100999.56;;;17.65;60.18
35224;BME280;21367;51.930;8.112;2022-07-29T01:13:57;100999.16;;;17.43;60.87
35224;BME280;21367;51.930;8.112;2022-07-29T01:19:07;100988.75;;;16.98;62.12
35224;BME280;21367;51.930;8.112;2022-07-29T01:24:34;100982.94;;;17.09;61.90
35224;BME280;21367;51.930;8.112;2022-07-29T01:29:48;100977.75;;;16.70;62.62
35224;BME280;21367;51.930;8.112;2022-07-29T01:34:55;100971.03;;;16.78;62.06
35224;BME280;21367;51.930;8.112;2022-07-29T01:40:01;100971.97;;;16.82;62.25
35224;BME280;21367;51.930;8.112;2022-07-29T01:45:13;100975.94;;;17.07;61.57
35224;BME280;21367;51.930;8.112;2022-07-29T01:50:19;100975.25;;;16.75;63.25
35224;BME280;21367;51.930;8.112;2022-07-29T01:55:31;100969.16;;;17.14;61.85
35224;BME280;21367;51.930;8.112;2022-07-29T02:00:39;100961.72;;;16.88;62.79
35224;BME280;21367;51.930;8.112;2022-07-29T02:05:45;100949.97;;;16.66;63.48
35224;BME280;21367;51.930;8.112;2022-07-29T02:10:51;100947.25;;;16.60;63.73
35224;BME280;21367;51.930;8.112;2022-07-29T02:15:59;100952.19;;;16.87;62.25
35224;BME280;21367;51.930;8.112;2022-07-29T02:21:04;100942.91;;;16.59;63.56
35224;BME280;21367;51.930;8.112;2022-07-29T02:26:08;100943.72;;;16.56;63.55
35224;BME280;21367;51.930;8.112;2022-07-29T02:31:17;100941.75;;;16.85;62.63
35224;BME280;21367;51.930;8.112;2022-07-29T02:36:23;100947.31;;;16.61;63.10
35224;BME280;21367;51.930;8.112;2022-07-29T02:41:30;100942.56;;;16.81;63.29
35224;BME280;21367;51.930;8.112;2022-07-29T02:46:41;100940.97;;;16.49;62.96
35224;BME280;21367;51.930;8.112;2022-07-29T02:51:56;100946.97;;;16.46;63.38
35224;BME280;21367;51.930;8.112;2022-07-29T02:57:06;100944.97;;;16.74;63.18
35224;BME280;21367;51.930;8.112;2022-07-29T03:02:15;100939.13;;;16.45;62.91
35224;BME280;21367;51.930;8.112;2022-07-29T03:07:20;100943.91;;;16.26;64.05
35224;BME280;21367;51.930;8.112;2022-07-29T03:12:25;100938.53;;;16.55;63.29
35224;BME280;21367;51.930;8.112;2022-07-29T03:17:31;100930.06;;;16.24;63.82
35224;BME280;21367;51.930;8.112;2022-07-29T03:22:39;100940.56;;;16.30;64.00
35224;BME280;21367;51.930;8.112;2022-07-29T03:27:44;100941.25;;;16.23;64.55
35224;BME280;21367;51.930;8.112;2022-07-29T03:32:53;100930.50;;;16.06;65.25
35224;BME280;21367;51.930;8.112;2022-07-29T03:37:56;100932.88;;;16.35;63.48
35224;BME280;21367;51.930;8.112;2022-07-29T03:43:00;100929.97;;;15.83;65.93
35224;BME280;21367;51.930;8.112;2022-07-29T03:48:10;100929.25;;;15.89;65.42
35224;BME280;21367;51.930;8.112;2022-07-29T03:53:16;100930.44;;;16.03;65.46
35224;BME280;21367;51.930;8.112;2022-07-29T03:58:20;100933.25;;;16.12;65.30
35224;BME280;21367;51.930;8.112;2022-07-29T04:03:27;100926.03;;;15.99;65.18
35224;BME280;21367;51.930;8.112;2022-07-29T04:08:31;100935.69;;;16.06;64.41
35224;BME280;21367;51.930;8.112;2022-07-29T04:13:35;100937.47;;;16.48;63.87
35224;BME280;21367;51.930;8.112;2022-07-29T04:18:41;100944.06;;;16.73;63.29
35224;BME280;21367;51.930;8.112;2022-07-29T04:23:45;100944.88;;;16.30;65.87
35224;BME280;21367;51.930;8.112;2022-07-29T04:28:50;100930.47;;;16.42;64.42
35224;BME280;21367;51.930;8.112;2022-07-29T04:33:57;100930.00;;;15.85;66.44
35224;BME280;21367;51.930;8.112;2022-07-29T04:39:00;100924.41;;;16.04;65.92
35224;BME280;21367;51.930;8.112;2022-07-29T04:44:04;100923.38;;;15.96;66.08
35224;BME280;21367;51.930;8.112;2022-07-29T04:49:10;100920.56;;;16.26;65.31
35224;BME280;21367;51.930;8.112;2022-07-29T04:54:14;100922.78;;;16.47;64.86
35224;BME280;21367;51.930;8.112;2022-07-29T04:59:17;100927.47;;;16.24;64.92
35224;BME280;21367;51.930;8.112;2022-07-29T05:04:24;100936.00;;;16.20;66.32
35224;BME280;21367;51.930;8.112;2022-07-29T05:09:27;100925.94;;;16.34;65.20
35224;BME280;21367;51.930;8.112;2022-07-29T05:14:33;100931.34;;;16.45;65.48
35224;BME280;21367;51.930;8.112;2022-07-29T05:19:39;100921.34;;;16.61;65.15
35224;BME280;21367;51.930;8.112;2022-07-29T05:24:43;100931.88;;;16.69;65.58
35224;BME280;21367;51.930;8.112;2022-07-29T05:29:47;100936.94;;;17.04;64.53
35224;BME280;21367;51.930;8.112;2022-07-29T05:34:53;100930.66;;;17.38;62.83
35224;BME280;21367;51.930;8.112;2022-07-29T05:39:57;100939.47;;;17.46;62.73
35224;BME280;21367;51.930;8.112;2022-07-29T05:45:01;100939.31;;;17.39;63.95
35224;BME280;21367;51.930;8.112;2022-07-29T05:50:08;100950.88;;;17.56;62.79
35224;BME280;21367;51.930;8.112;2022-07-29T05:55:13;100953.19;;;18.47;60.09
35224;BME280;21367;51.930;8.112;2022-07-29T06:00:17;100960.94;;;17.85;62.47
35224;BME280;21367;51.930;8.112;2022-07-29T06:05:23;100960.47;;;18.10;61.87
35224;BME280;21367;51.930;8.112;2022-07-29T06:10:27;100964.31;;;18.34;62.01
35224;BME280;21367;51.930;8.112;2022-07-29T06:15:31;100969.75;;;17.94;62.29
35224;BME280;21367;51.930;8.112;2022-07-29T06:20:37;100971.34;;;18.42;61.31
35224;BME280;21367;51.930;8.112;2022-07-29T06:25:41;100955.53;;;18.29;61.42
35224;BME280;21367;51.930;8.112;2022-07-29T06:30:45;100956.34;;;18.24;61.67
35224;BME280;21367;51.930;8.112;2022-07-29T06:35:51;100953.13;;;18.42;60.88
35224;BME280;21367;51.930;8.112;2022-07-29T06:40:55;100958.84;;;18.79;60.02
35224;BME280;21367;51.930;8.112;2022-07-29T06:46:08;100959.34;;;19.24;58.88
35224;BME280;21367;51.930;8.112;2022-07-29T06:51:14;100963.75;;;19.28;59.24
35224;BME280;21367;51.930;8.112;2022-07-29T06:56:18;100966.72;;;19.63;58.51
35224;BME280;21367;51.930;8.112;2022-07-29T07:01:22;100974.31;;;19.40;57.53
35224;BME280;21367;51.930;8.112;2022-07-29T07:06:29;100986.97;;;19.08;58.55
35224;BME280;21367;51.930;8.112;2022-07-29T07:11:32;100993.75;;;19.70;56.95
35224;BME280;21367;51.930;8.112;2022-07-29T07:16:36;101005.09;;;19.72;57.11
35224;BME280;21367;51.930;8.112;2022-07-29T07:21:43;101006.09;;;19.87;58.13
35224;BME280;21367;51.930;8.112;2022-07-29T07:26:47;100992.84;;;19.66;58.08
35224;BME280;21367;51.930;8.112;2022-07-29T07:31:51;100986.94;;;19.84;56.81
35224;BME280;21367;51.930;8.112;2022-07-29T07:36:58;100990.00;;;20.47;55.52
35224;BME280;21367;51.930;8.112;2022-07-29T07:42:02;100998.00;;;20.74;54.30
35224;BME280;21367;51.930;8.112;2022-07-29T07:47:06;100993.59;;;20.63;55.13
35224;BME280;21367;51.930;8.112;2022-07-29T07:52:12;100996.00;;;20.32;52.92
35224;BME280;21367;51.930;8.112;2022-07-29T07:57:16;100989.88;;;20.30;53.66
35224;BME280;21367;51.930;8.112;2022-07-29T08:02:20;100994.44;;;20.62;53.00
35224;BME280;21367;51.930;8.112;2022-07-29T08:07:27;100994.72;;;21.31;52.74
35224;BME280;21367;51.930;8.112;2022-07-29T08:12:31;100986.09;;;21.75;49.51
35224;BME280;21367;51.930;8.112;2022-07-29T08:17:34;100987.84;;;22.12;49.30
35224;BME280;21367;51.930;8.112;2022-07-29T08:22:41;100985.22;;;21.62;50.00
35224;BME280;21367;51.930;8.112;2022-07-29T08:27:45;100980.88;;;21.99;48.47
35224;BME280;21367;51.930;8.112;2022-07-29T08:32:48;100980.88;;;21.76;48.24
35224;BME280;21367;51.930;8.112;2022-07-29T08:37:56;100985.22;;;22.31;48.19
35224;BME280;21367;51.930;8.112;2022-07-29T08:43:04;100984.25;;;22.73;48.49
35224;BME280;21367;51.930;8.112;2022-07-29T08:48:08;100980.84;;;22.48;47.35
35224;BME280;21367;51.930;8.112;2022-07-29T08:53:16;100976.78;;;23.63;46.04
35224;BME280;21367;51.930;8.112;2022-07-29T08:58:20;100971.88;;;23.14;45.83
35224;BME280;21367;51.930;8.112;2022-07-29T09:03:31;100977.31;;;22.58;47.36
35224;BME280;21367;51.930;8.112;2022-07-29T09:08:38;100974.50;;;23.14;45.79
35224;BME280;21367;51.930;8.112;2022-07-29T09:13:42;100957.97;;;24.22;44.82
35224;BME280;21367;51.930;8.112;2022-07-29T09:18:47;100965.94;;;24.10;44.40
35224;BME280;21367;51.930;8.112;2022-07-29T09:24:05;100956.13;;;25.03;43.67
35224;BME280;21367;51.930;8.112;2022-07-29T09:29:11;100963.06;;;25.10;42.46
35224;BME280;21367;51.930;8.112;2022-07-29T09:34:24;100960.41;;;25.71;39.76
35224;BME280;21367;51.930;8.112;2022-07-29T09:39:33;100960.66;;;26.10;40.19
35224;BME280;21367;51.930;8.112;2022-07-29T09:44:42;100964.63;;;25.25;42.32
35224;BME280;21367;51.930;8.112;2022-07-29T09:49:54;100958.88;;;24.96;42.06
35224;BME280;21367;51.930;8.112;2022-07-29T09:55:08;100956.41;;;24.83;43.78
35224;BME280;21367;51.930;8.112;2022-07-29T10:00:15;100954.50;;;24.17;45.26
35224;BME280;21367;51.930;8.112;2022-07-29T10:05:20;100948.13;;;24.44;42.99
35224;BME280;21367;51.930;8.112;2022-07-29T10:10:27;100941.97;;;25.17;43.88
35224;BME280;21367;51.930;8.112;2022-07-29T10:15:33;100938.03;;;28.32;37.19
35224;BME280;21367;51.930;8.112;2022-07-29T10:20:39;100939.78;;;27.29;39.67
35224;BME280;21367;51.930;8.112;2022-07-29T10:25:46;100936.31;;;27.27;38.90
35224;BME280;21367;51.930;8.112;2022-07-29T10:30:51;100932.53;;;26.57;38.02
35224;BME280;21367;51.930;8.112;2022-07-29T10:36:07;100930.19;;;25.95;39.99
35224;BME280;21367;51.930;8.112;2022-07-29T10:46:58;100935.78;;;25.75;38.96
35224;BME280;21367;51.930;8.112;2022-07-29T10:52:07;100934.47;;;27.31;37.78
35224;BME280;21367;51.930;8.112;2022-07-29T10:57:17;100933.75;;;27.60;36.09
35224;BME280;21367;51.930;8.112;2022-07-29T11:02:45;100919.16;;;28.15;35.40
35224;BME280;21367;51.930;8.112;2022-07-29T11:13:48;100918.91;;;30.45;34.59
35224;BME280;21367;51.930;8.112;2022-07-29T11:19:23;100918.69;;;28.93;35.93
35224;BME280;21367;51.930;8.112;2022-07-29T11:24:28;100912.69;;;29.95;34.38
35224;BME280;21367;51.930;8.112;2022-07-29T11:29:35;100913.31;;;27.32;39.58
35224;BME280;21367;51.930;8.112;2022-07-29T11:34:45;100911.19;;;27.84;39.02
35224;BME280;21367;51.930;8.112;2022-07-29T11:40:08;100920.00;;;28.78;37.82
35224;BME280;21367;51.930;8.112;2022-07-29T11:45:15;100915.94;;;28.96;35.79
35224;BME280;21367;51.930;8.112;2022-07-29T11:50:36;100918.41;;;27.77;38.75
35224;BME280;21367;51.930;8.112;2022-07-29T11:55:40;100921.88;;;26.63;41.87
35224;BME280;21367;51.930;8.112;2022-07-29T12:00:46;100910.44;;;26.64;40.61
35224;BME280;21367;51.930;8.112;2022-07-29T12:05:52;100920.94;;;25.71;41.64
35224;BME280;21367;51.930;8.112;2022-07-29T12:10:57;100922.13;;;25.50;43.72
35224;BME280;21367;51.930;8.112;2022-07-29T12:16:00;100924.28;;;26.30;41.79
35224;BME280;21367;51.930;8.112;2022-07-29T12:21:06;100925.53;;;26.11;41.61
35224;BME280;21367;51.930;8.112;2022-07-29T12:26:10;100924.34;;;25.76;41.19
35224;BME280;21367;51.930;8.112;2022-07-29T12:31:15;100920.38;;;26.04;42.27
35224;BME280;21367;51.930;8.112;2022-07-29T12:36:21;100931.28;;;25.81;42.55
35224;BME280;21367;51.930;8.112;2022-07-29T12:41:27;100927.53;;;25.42;42.06
35224;BME280;21367;51.930;8.112;2022-07-29T12:46:31;100931.88;;;24.81;44.01
35224;BME280;21367;51.930;8.112;2022-07-29T12:51:39;100925.50;;;25.59;47.29
35224;BME280;21367;51.930;8.112;2022-07-29T12:56:44;100923.09;;;24.05;48.47
35224;BME280;21367;51.930;8.112;2022-07-29T13:01:49;100923.06;;;24.08;51.00
35224;BME280;21367;51.930;8.112;2022-07-29T13:07:04;100925.59;;;25.53;48.01
35224;BME280;21367;51.930;8.112;2022-07-29T13:12:10;100920.47;;;25.44;47.79
35224;BME280;21367;51.930;8.112;2022-07-29T13:17:15;100922.56;;;25.22;49.20
35224;BME280;21367;51.930;8.112;2022-07-29T13:22:24;100918.84;;;25.37;49.87
35224;BME280;21367;51.930;8.112;2022-07-29T13:27:29;100916.53;;;25.15;49.59
35224;BME280;21367;51.930;8.112;2022-07-29T13:32:33;100912.22;;;25.07;47.22
35224;BME280;21367;51.930;8.112;2022-07-29T13:37:40;100917.34;;;25.19;47.43
35224;BME280;21367;51.930;8.112;2022-07-29T13:42:44;100927.66;;;24.68;47.86
35224;BME280;21367;51.930;8.112;2022-07-29T13:47:48;100923.00;;;24.14;50.59
35224;BME280;21367;51.930;8.112;2022-07-29T13:52:54;100925.53;;;24.22;50.77
35224;BME280;21367;51.930;8.112;2022-07-29T13:57:58;100932.78;;;23.97;51.77
35224;BME280;21367;51.930;8.112;2022-07-29T14:03:03;100931.31;;;23.64;52.72
35224;BME280;21367;51.930;8.112;2022-07-29T14:08:10;100928.22;;;23.08;53.02
35224;BME280;21367;51.930;8.112;2022-07-29T14:13:14;100929.13;;;23.02;52.92
35224;BME280;21367;51.930;8.112;2022-07-29T14:18:18;100926.53;;;22.98;52.51
35224;BME280;21367;51.930;8.112;2022-07-29T14:23:25;100933.56;;;22.85;52.89
35224;BME280;21367;51.930;8.112;2022-07-29T14:28:29;100930.13;;;22.71;55.71
35224;BME280;21367;51.930;8.112;2022-07-29T14:33:32;100942.38;;;22.64;58.37
35224;BME280;21367;51.930;8.112;2022-07-29T14:38:39;100940.69;;;22.40;61.35
35224;BME280;21367;51.930;8.112;2022-07-29T14:43:43;100937.28;;;21.87;65.97
35224;BME280;21367;51.930;8.112;2022-07-29T14:48:47;100936.13;;;20.61;72.15
35224;BME280;21367;51.930;8.112;2022-07-29T14:53:53;100932.44;;;20.30;71.90
35224;BME280;21367;51.930;8.112;2022-07-29T14:58:57;100938.84;;;19.56;75.41
35224;BME280;21367;51.930;8.112;2022-07-29T15:04:01;100930.03;;;19.45;76.58
35224;BME280;21367;51.930;8.112;2022-07-29T15:09:08;100926.50;;;19.39;75.19
35224;BME280;21367;51.930;8.112;2022-07-29T15:14:12;100917.97;;;19.57;75.26
35224;BME280;21367;51.930;8.112;2022-07-29T15:19:16;100919.69;;;19.55;76.00
35224;BME280;21367;51.930;8.112;2022-07-29T15:24:23;100913.16;;;20.08;73.71
35224;BME280;21367;51.930;8.112;2022-07-29T15:29:27;100909.81;;;20.29;73.60
35224;BME280;21367;51.930;8.112;2022-07-29T15:34:34;100908.97;;;20.33;73.43
35224;BME280;21367;51.930;8.112;2022-07-29T15:39:40;100908.50;;;21.44;70.41
35224;BME280;21367;51.930;8.112;2022-07-29T15:44:44;100900.63;;;23.76;63.60
35224;BME280;21367;51.930;8.112;2022-07-29T15:49:48;100899.84;;;24.52;61.09
35224;BME280;21367;51.930;8.112;2022-07-29T15:54:55;100893.97;;;24.98;59.58
35224;BME280;21367;51.930;8.112;2022-07-29T16:00:00;100897.94;;;25.80;56.71
35224;BME280;21367;51.930;8.112;2022-07-29T16:05:08;100897.59;;;26.48;54.51
35224;BME280;21367;51.930;8.112;2022-07-29T16:10:15;100905.25;;;26.61;55.53
35224;BME280;21367;51.930;8.112;2022-07-29T16:15:19;100904.63;;;26.01;57.49
35224;BME280;21367;51.930;8.112;2022-07-29T16:20:22;100896.53;;;25.02;58.54
35224;BME280;21367;51.930;8.112;2022-07-29T16:25:29;100904.06;;;24.65;60.69
35224;BME280;21367;51.930;8.112;2022-07-29T16:30:32;100905.28;;;24.33;63.17
35224;BME280;21367;51.930;8.112;2022-07-29T16:35:36;100917.94;;;23.97;65.07
35224;BME280;21367;51.930;8.112;2022-07-29T16:40:44;100917.34;;;23.63;65.23
35224;BME280;21367;51.930;8.112;2022-07-29T16:45:47;100915.69;;;23.48;66.44
35224;BME280;21367;51.930;8.112;2022-07-29T16:50:51;100923.34;;;23.79;66.50
35224;BME280;21367;51.930;8.112;2022-07-29T16:55:58;100920.22;;;25.61;60.29
35224;BME280;21367;51.930;8.112;2022-07-29T17:01:02;100917.63;;;26.11;59.44
35224;BME280;21367;51.930;8.112;2022-07-29T17:06:06;100920.66;;;25.88;58.38
35224;BME280;21367;51.930;8.112;2022-07-29T17:11:12;100922.66;;;25.16;59.99
35224;BME280;21367;51.930;8.112;2022-07-29T17:16:16;100924.66;;;24.21;62.75
35224;BME280;21367;51.930;8.112;2022-07-29T17:21:24;100928.91;;;24.35;63.95
35224;BME280;21367;51.930;8.112;2022-07-29T17:26:31;100930.84;;;24.17;63.97
35224;BME280;21367;51.930;8.112;2022-07-29T17:31:35;100930.31;;;23.82;64.12
35224;BME280;21367;51.930;8.112;2022-07-29T17:36:39;100938.09;;;23.92;63.59
35224;BME280;21367;51.930;8.112;2022-07-29T17:41:45;100941.94;;;23.47;65.48
35224;BME280;21367;51.930;8.112;2022-07-29T17:46:49;100945.53;;;23.30;66.09
35224;BME280;21367;51.930;8.112;2022-07-29T17:51:53;100947.94;;;23.64;64.86
35224;BME280;21367;51.930;8.112;2022-07-29T17:57:00;100962.19;;;23.29;65.71
35224;BME280;21367;51.930;8.112;2022-07-29T18:02:03;100957.91;;;23.08;64.92
35224;BME280;21367;51.930;8.112;2022-07-29T18:07:07;100957.22;;;22.67;66.52
35224;BME280;21367;51.930;8.112;2022-07-29T18:12:13;100966.03;;;22.09;68.95
35224;BME280;21367;51.930;8.112;2022-07-29T18:17:17;100966.91;;;21.68;69.82
35224;BME280;21367;51.930;8.112;2022-07-29T18:22:21;100967.81;;;22.04;67.71
35224;BME280;21367;51.930;8.112;2022-07-29T18:27:27;100970.41;;;21.58;69.56
35224;BME280;21367;51.930;8.112;2022-07-29T18:32:31;100977.41;;;21.85;68.34
35224;BME280;21367;51.930;8.112;2022-07-29T18:37:35;100984.38;;;21.83;69.00
35224;BME280;21367;51.930;8.112;2022-07-29T18:42:41;100985.22;;;21.65;69.53
35224;BME280;21367;51.930;8.112;2022-07-29T18:47:45;100988.72;;;21.71;69.05
35224;BME280;21367;51.930;8.112;2022-07-29T18:52:49;100986.97;;;21.58;69.56
35224;BME280;21367;51.930;8.112;2022-07-29T18:57:55;100986.09;;;21.58;68.18
35224;BME280;21367;51.930;8.112;2022-07-29T19:02:59;100985.22;;;21.65;68.08
35224;BME280;21367;51.930;8.112;2022-07-29T19:08:03;101002.66;;;21.51;68.53
35224;BME280;21367;51.930;8.112;2022-07-29T19:13:09;101010.53;;;21.54;68.11
35224;BME280;21367;51.930;8.112;2022-07-29T19:18:13;101020.94;;;21.43;69.05
35224;BME280;21367;51.930;8.112;2022-07-29T19:23:17;101019.91;;;21.02;70.71
35224;BME280;21367;51.930;8.112;2022-07-29T19:28:23;101020.81;;;21.08;70.14
35224;BME280;21367;51.930;8.112;2022-07-29T19:33:27;101028.69;;;21.15;71.24
35224;BME280;21367;51.930;8.112;2022-07-29T19:38:31;101034.69;;;20.96;71.65
35224;BME280;21367;51.930;8.112;2022-07-29T19:43:37;101035.53;;;20.96;72.67
35224;BME280;21367;51.930;8.112;2022-07-29T19:48:41;101036.38;;;20.82;73.28
35224;BME280;21367;51.930;8.112;2022-07-29T19:53:45;101045.03;;;20.76;74.78
35224;BME280;21367;51.930;8.112;2022-07-29T19:58:52;101045.00;;;20.65;75.17
35224;BME280;21367;51.930;8.112;2022-07-29T20:03:55;101043.00;;;20.35;74.58
35224;BME280;21367;51.930;8.112;2022-07-29T20:08:59;101051.72;;;19.47;79.13
35224;BME280;21367;51.930;8.112;2022-07-29T20:14:06;101055.69;;;19.92;77.25
35224;BME280;21367;51.930;8.112;2022-07-29T20:19:10;101049.63;;;19.93;78.18
35224;BME280;21367;51.930;8.112;2022-07-29T20:24:14;101060.31;;;20.27;77.30
35224;BME280;21367;51.930;8.112;2022-07-29T20:29:20;101061.88;;;20.00;79.35
35224;BME280;21367;51.930;8.112;2022-07-29T20:34:25;101067.06;;;19.97;80.55
35224;BME280;21367;51.930;8.112;2022-07-29T20:39:29;101072.44;;;20.17;79.80
35224;BME280;21367;51.930;8.112;2022-07-29T20:44:35;101065.69;;;20.41;78.90
35224;BME280;21367;51.930;8.112;2022-07-29T20:49:39;101062.47;;;19.72;81.24
35224;BME280;21367;51.930;8.112;2022-07-29T20:54:43;101064.97;;;19.64;81.75
35224;BME280;21367;51.930;8.112;2022-07-29T20:59:50;101066.16;;;19.95;83.14
35224;BME280;21367;51.930;8.112;2022-07-29T21:04:53;101076.47;;;19.81;85.52
35224;BME280;21367;51.930;8.112;2022-07-29T21:09:57;101082.63;;;19.90;87.43
35224;BME280;21367;51.930;8.112;2022-07-29T21:15:05;101078.94;;;19.71;89.91
35224;BME280;21367;51.930;8.112;2022-07-29T21:20:13;101075.22;;;19.50;92.06
35224;BME280;21367;51.930;8.112;2022-07-29T21:25:18;101080.25;;;19.36;92.70
35224;BME280;21367;51.930;8.112;2022-07-29T21:30:24;101073.91;;;19.14;94.73
35224;BME280;21367;51.930;8.112;2022-07-29T21:35:28;101071.53;;;19.31;93.42
35224;BME280;21367;51.930;8.112;2022-07-29T21:40:32;101081.16;;;19.37;93.25
35224;BME280;21367;51.930;8.112;2022-07-29T21:45:39;101073.41;;;19.43;93.74
35224;BME280;21367;51.930;8.112;2022-07-29T21:50:44;101074.97;;;19.30;94.58
35224;BME280;21367;51.930;8.112;2022-07-29T21:55:48;101088.78;;;19.23;94.40
35224;BME280;21367;51.930;8.112;2022-07-29T22:00:56;101094.00;;;19.22;95.27
35224;BME280;21367;51.930;8.112;2022-07-29T22:06:00;101090.06;;;18.87;98.11
35224;BME280;21367;51.930;8.112;2022-07-29T22:11:04;101092.16;;;19.14;94.97
35224;BME280;21367;51.930;8.112;2022-07-29T22:16:10;101082.41;;;19.01;94.94
35224;BME280;21367;51.930;8.112;2022-07-29T22:21:16;101079.47;;;18.75;96.24
35224;BME280;21367;51.930;8.112;2022-07-29T22:26:19;101075.44;;;18.97;95.97
35224;BME280;21367;51.930;8.112;2022-07-29T22:31:26;101082.19;;;18.84;95.99
35224;BME280;21367;51.930;8.112;2022-07-29T22:36:30;101076.78;;;18.72;96.75
35224;BME280;21367;51.930;8.112;2022-07-29T22:41:34;101088.28;;;18.86;95.72
35224;BME280;21367;51.930;8.112;2022-07-29T22:46:40;101089.75;;;18.70;96.39
35224;BME280;21367;51.930;8.112;2022-07-29T22:51:44;101085.53;;;18.76;95.48
35224;BME280;21367;51.930;8.112;2022-07-29T22:56:48;101090.63;;;18.68;97.89
35224;BME280;21367;51.930;8.112;2022-07-29T23:01:54;101084.31;;;18.54;98.30
35224;BME280;21367;51.930;8.112;2022-07-29T23:06:58;101077.69;;;18.72;96.15
35224;BME280;21367;51.930;8.112;2022-07-29T23:12:02;101084.41;;;18.61;97.03
35224;BME280;21367;51.930;8.112;2022-07-29T23:17:09;101080.84;;;18.55;96.53
35224;BME280;21367;51.930;8.112;2022-07-29T23:22:13;101069.25;;;18.34;98.12
35224;BME280;21367;51.930;8.112;2022-07-29T23:27:16;101070.94;;;18.32;99.45
35224;BME280;21367;51.930;8.112;2022-07-29T23:32:23;101068.59;;;18.46;98.21
35224;BME280;21367;51.930;8.112;2022-07-29T23:37:27;101063.13;;;18.31;98.58
35224;BME280;21367;51.930;8.112;2022-07-29T23:42:30;101063.91;;;18.25;98.53
35224;BME280;21367;51.930;8.112;2022-07-29T23:47:37;101059.50;;;18.21;98.93
35224;BME280;21367;51.930;8.112;2022-07-29T23:52:42;101060.19;;;18.11;99.65
35224;BME280;21367;51.930;8.112;2022-07-29T23:57:46;101055.19;;;18.23;99.66
